Time;durP1;ratioP1;P1;durP2;ratioP2;P2;SDS_P1;SDS_P2;PMS_P1;PMS_P2;Temp;Humidity;BMP_temperature;BMP_pressure;BME280_temperature;BME280_humidity;BME280_pressure;Samples;Min_cycle;Max_cycle;Signal;HPM_P1;HPM_P2
2021/01/31 00:00:19;;;;;;;3.47;2.80;;;2.60;1.00;;;;;;5096506;28;20687;-69
2021/01/31 00:02:45;;;;;;;3.67;2.63;;;2.60;1.00;;;;;;5096444;28;20158;-69
2021/01/31 00:05:12;;;;;;;2.77;2.20;;;2.70;1.00;;;;;;5096269;28;20635;-69
2021/01/31 00:07:38;;;;;;;3.15;2.42;;;2.50;1.00;;;;;;5096156;28;20675;-69
2021/01/31 00:10:04;;;;;;;2.97;2.30;;;2.40;1.00;;;;;;5096273;28;20358;-68
2021/01/31 00:12:30;;;;;;;3.22;2.50;;;2.40;1.00;;;;;;5096267;28;20226;-69
2021/01/31 00:14:55;;;;;;;3.30;2.90;;;2.30;1.00;;;;;;5096515;28;20195;-68
2021/01/31 00:17:21;;;;;;;3.77;2.80;;;2.40;1.00;;;;;;5096489;28;20167;-69
2021/01/31 00:19:46;;;;;;;3.27;2.60;;;2.40;1.00;;;;;;5095997;28;20187;-69
2021/01/31 00:22:12;;;;;;;2.83;2.50;;;2.40;1.00;;;;;;5097082;28;20176;-69
2021/01/31 00:24:38;;;;;;;4.90;3.80;;;2.40;1.00;;;;;;5095697;28;20225;-68
2021/01/31 00:27:03;;;;;;;5.07;3.28;;;2.60;1.00;;;;;;5096145;28;20556;-67
2021/01/31 00:29:29;;;;;;;5.70;3.57;;;2.80;1.00;;;;;;5095805;28;20214;-69
2021/01/31 00:31:54;;;;;;;5.40;3.77;;;3.00;1.00;;;;;;5095975;28;20612;-68
2021/01/31 00:34:21;;;;;;;4.37;2.83;;;2.90;1.00;;;;;;5095745;28;20325;-69
2021/01/31 00:36:47;;;;;;;6.05;3.00;;;2.80;1.00;;;;;;5095843;28;20224;-68
2021/01/31 00:39:13;;;;;;;3.83;3.43;;;2.80;1.00;;;;;;5095672;28;20250;-69
2021/01/31 00:41:38;;;;;;;4.97;3.05;;;2.70;1.00;;;;;;5095546;28;20428;-69
2021/01/31 00:44:06;;;;;;;4.40;3.30;;;2.80;1.00;;;;;;5095590;28;20625;-67
2021/01/31 00:46:41;;;;;;;5.15;3.20;;;2.90;1.00;;;;;;5095726;28;20175;-69
2021/01/31 00:49:09;;;;;;;4.93;3.15;;;2.50;1.00;;;;;;5096204;28;20152;-69
2021/01/31 00:51:34;;;;;;;3.13;2.83;;;2.60;1.00;;;;;;5095040;28;20199;-68
2021/01/31 00:54:00;;;;;;;4.20;3.20;;;2.80;1.00;;;;;;5095455;28;20203;-69
2021/01/31 00:56:25;;;;;;;5.47;3.37;;;2.70;1.00;;;;;;5095423;28;20183;-68
2021/01/31 00:58:51;;;;;;;4.07;3.00;;;2.80;1.00;;;;;;5095543;28;20230;-68
2021/01/31 01:01:18;;;;;;;4.40;3.43;;;2.50;1.00;;;;;;5095300;28;20196;-68
2021/01/31 01:03:45;;;;;;;3.70;2.60;;;2.20;1.00;;;;;;5095176;28;20466;-68
2021/01/31 01:06:11;;;;;;;4.55;3.45;;;2.30;1.00;;;;;;5095013;28;20182;-69
2021/01/31 01:08:36;;;;;;;3.67;3.00;;;2.30;1.00;;;;;;5095623;28;20203;-68
2021/01/31 01:11:02;;;;;;;4.83;3.23;;;2.50;1.00;;;;;;5094951;28;20195;-69
2021/01/31 01:13:28;;;;;;;5.30;3.53;;;2.60;1.00;;;;;;5094982;28;20236;-69
2021/01/31 01:15:54;;;;;;;5.15;3.65;;;2.50;1.00;;;;;;5095310;28;20440;-69
2021/01/31 01:18:20;;;;;;;3.30;2.75;;;2.40;1.00;;;;;;5095165;28;20308;-68
2021/01/31 01:20:46;;;;;;;4.53;3.38;;;2.30;1.00;;;;;;5094779;28;20223;-68
2021/01/31 01:23:12;;;;;;;4.80;2.80;;;2.20;1.00;;;;;;5094841;28;20179;-69
2021/01/31 01:25:38;;;;;;;4.07;3.27;;;2.30;1.00;;;;;;5094802;28;20170;-69
2021/01/31 01:28:03;;;;;;;3.63;3.33;;;2.40;1.00;;;;;;5094729;28;20244;-68
2021/01/31 01:30:31;;;;;;;5.40;3.20;;;2.30;1.00;;;;;;5094584;28;20266;-68
2021/01/31 01:32:58;;;;;;;2.83;2.53;;;2.40;1.00;;;;;;5094831;28;20203;-68
2021/01/31 01:35:24;;;;;;;6.15;3.00;;;2.30;1.00;;;;;;5094567;28;20163;-68
2021/01/31 01:37:51;;;;;;;4.53;3.55;;;2.30;1.00;;;;;;5094398;28;20164;-68
2021/01/31 01:40:22;;;;;;;4.75;3.15;;;2.20;1.00;;;;;;5094354;28;20217;-68
2021/01/31 01:42:49;;;;;;;6.50;4.38;;;2.30;1.00;;;;;;5094447;28;20520;-69
2021/01/31 01:45:15;;;;;;;4.18;3.17;;;2.50;1.00;;;;;;5094243;28;20194;-68
2021/01/31 01:47:42;;;;;;;5.05;3.70;;;2.10;1.00;;;;;;5094244;28;20207;-69
2021/01/31 01:50:24;;;;;;;5.03;3.67;;;2.00;1.00;;;;;;5094362;28;20218;-69
2021/01/31 01:52:53;;;;;;;4.18;3.40;;;2.00;1.00;;;;;;5094125;28;20176;-68
2021/01/31 01:55:20;;;;;;;5.97;3.75;;;2.00;1.00;;;;;;5094441;28;20163;-68
2021/01/31 01:57:53;;;;;;;5.22;3.47;;;2.20;1.00;;;;;;5094126;28;20254;-68
2021/01/31 02:00:20;;;;;;;4.45;3.58;;;2.10;1.00;;;;;;5093935;28;20208;-69
2021/01/31 02:03:05;;;;;;;6.35;4.03;;;1.90;1.00;;;;;;5093959;28;20163;-68
2021/01/31 02:05:32;;;;;;;6.68;5.20;;;1.80;1.00;;;;;;5093981;28;20152;-69
2021/01/31 02:07:58;;;;;;;5.80;4.25;;;1.90;1.00;;;;;;5094052;28;20187;-68
2021/01/31 02:10:25;;;;;;;5.20;3.45;;;1.80;1.00;;;;;;5093824;28;20240;-69
2021/01/31 02:12:56;;;;;;;4.97;3.67;;;2.00;1.00;;;;;;5093659;28;20282;-68
2021/01/31 02:15:22;;;;;;;5.45;3.40;;;1.70;1.00;;;;;;5094228;28;20259;-69
2021/01/31 02:17:59;;;;;;;5.65;3.38;;;1.70;1.00;;;;;;5093748;28;20191;-69
2021/01/31 02:20:52;;;;;;;4.72;3.50;;;1.70;1.00;;;;;;5093520;28;20183;-69
2021/01/31 02:23:57;;;;;;;5.90;3.95;;;1.70;1.00;;;;;;5093762;28;20187;-68
2021/01/31 02:26:35;;;;;;;5.72;4.10;;;1.70;1.00;;;;;;5093636;28;20155;-68
2021/01/31 02:29:34;;;;;;;7.20;4.25;;;1.60;1.00;;;;;;5093821;28;20212;-69
2021/01/31 02:32:12;;;;;;;6.50;4.75;;;1.60;1.00;;;;;;5093365;28;20202;-68
2021/01/31 02:34:50;;;;;;;6.82;4.10;;;1.50;1.00;;;;;;5093484;28;20163;-69
2021/01/31 02:37:42;;;;;;;6.65;4.13;;;1.40;1.00;;;;;;5093465;28;20160;-69
2021/01/31 02:40:13;;;;;;;5.38;3.97;;;1.30;1.00;;;;;;5093654;28;20201;-69
2021/01/31 02:42:47;;;;;;;9.02;5.25;;;1.20;1.00;;;;;;5093435;28;20151;-69
2021/01/31 02:45:27;;;;;;;6.05;4.43;;;1.50;1.00;;;;;;5093278;28;20249;-69
2021/01/31 02:48:17;;;;;;;6.85;4.80;;;1.40;1.00;;;;;;5093508;28;20163;-68
2021/01/31 02:50:49;;;;;;;8.73;4.90;;;1.30;1.00;;;;;;5093298;28;20187;-69
2021/01/31 02:53:25;;;;;;;6.43;4.30;;;1.50;1.00;;;;;;5093189;28;20274;-68
2021/01/31 02:56:04;;;;;;;4.75;3.97;;;1.30;1.00;;;;;;5093446;28;20162;-69
2021/01/31 02:58:35;;;;;;;5.40;4.53;;;1.20;1.00;;;;;;5093098;28;20163;-69
2021/01/31 03:01:12;;;;;;;8.23;5.03;;;1.20;1.00;;;;;;5093089;28;20672;-68
2021/01/31 03:04:02;;;;;;;8.95;5.40;;;1.10;1.00;;;;;;5092991;28;20156;-69
2021/01/31 03:06:31;;;;;;;6.55;4.80;;;1.10;1.00;;;;;;5092899;28;20187;-69
2021/01/31 03:09:16;;;;;;;5.28;4.22;;;1.10;1.00;;;;;;5093282;28;20168;-68
2021/01/31 03:12:09;;;;;;;6.85;4.63;;;1.00;1.00;;;;;;5092886;28;20595;-68
2021/01/31 03:14:56;;;;;;;6.65;4.45;;;1.20;1.00;;;;;;5085860;28;20183;-69
2021/01/31 03:17:35;;;;;;;7.40;5.72;;;1.10;1.00;;;;;;5098276;28;20747;-68
2021/01/31 03:20:17;;;;;;;9.95;5.57;;;0.90;1.00;;;;;;5099879;28;20661;-68
2021/01/31 03:22:55;;;;;;;8.85;5.78;;;0.70;1.00;;;;;;5098368;28;20169;-69
2021/01/31 03:25:48;;;;;;;7.90;4.75;;;0.70;1.00;;;;;;5098392;28;20319;-68
2021/01/31 03:28:13;;;;;;;6.30;4.93;;;0.80;1.00;;;;;;5099646;28;20163;-68
2021/01/31 03:30:39;;;;;;;5.13;4.13;;;0.70;1.00;;;;;;5099652;28;20183;-69
2021/01/31 03:33:13;;;;;;;9.95;5.55;;;0.70;1.00;;;;;;5099421;28;20194;-68
2021/01/31 03:35:44;;;;;;;7.88;5.00;;;0.60;1.00;;;;;;5099577;28;20152;-69
2021/01/31 03:38:10;;;;;;;7.90;6.00;;;1.00;1.00;;;;;;5098229;28;20170;-68
2021/01/31 03:40:39;;;;;;;8.23;4.83;;;1.10;1.00;;;;;;5099697;28;20577;-68
2021/01/31 03:43:04;;;;;;;10.38;5.43;;;0.80;1.00;;;;;;5099435;28;20168;-69
2021/01/31 03:45:36;;;;;;;8.10;5.10;;;0.80;1.00;;;;;;5099400;28;20228;-69
2021/01/31 03:48:16;;;;;;;8.18;5.38;;;0.70;1.00;;;;;;5099717;28;20175;-69
2021/01/31 03:50:41;;;;;;;9.00;5.20;;;0.60;1.00;;;;;;5099365;28;20187;-68
2021/01/31 03:53:09;;;;;;;7.83;5.60;;;0.70;1.00;;;;;;5099832;28;20663;-69
2021/01/31 03:55:34;;;;;;;8.48;5.78;;;0.70;1.00;;;;;;5099303;28;20533;-69
2021/01/31 03:58:06;;;;;;;5.77;4.53;;;0.90;1.00;;;;;;5099639;28;20171;-69
2021/01/31 04:00:36;;;;;;;8.93;5.63;;;0.90;1.00;;;;;;5098004;28;20192;-69
2021/01/31 04:03:20;;;;;;;8.48;5.38;;;1.20;1.00;;;;;;5099248;28;20179;-69
2021/01/31 04:05:57;;;;;;;8.20;5.22;;;1.40;1.00;;;;;;5099278;28;20201;-69
2021/01/31 04:08:23;;;;;;;11.20;6.78;;;0.90;1.00;;;;;;5099198;28;20183;-68
2021/01/31 04:10:49;;;;;;;12.07;6.40;;;1.00;1.00;;;;;;5097879;28;20191;-69
2021/01/31 04:13:18;;;;;;;7.43;5.60;;;1.10;1.00;;;;;;5099030;28;20195;-69
2021/01/31 04:15:50;;;;;;;8.23;6.40;;;0.80;1.00;;;;;;5099496;28;20397;-68
2021/01/31 04:18:17;;;;;;;9.77;6.28;;;0.90;1.00;;;;;;5099430;28;20156;-68
2021/01/31 04:20:43;;;;;;;8.23;5.93;;;1.00;1.00;;;;;;5099027;28;20555;-69
2021/01/31 04:23:09;;;;;;;8.55;5.50;;;0.80;1.00;;;;;;5099026;28;20223;-68
2021/01/31 04:25:36;;;;;;;10.43;6.00;;;0.80;1.00;;;;;;5098467;28;20174;-67
2021/01/31 04:28:24;;;;;;;8.73;5.95;;;0.60;1.00;;;;;;5094174;28;20179;-68
2021/01/31 04:30:56;;;;;;;7.28;5.43;;;0.80;1.00;;;;;;5095886;28;20187;-69
2021/01/31 04:33:23;;;;;;;11.30;8.75;;;0.50;1.00;;;;;;5095798;28;20192;-69
2021/01/31 04:35:49;;;;;;;10.13;6.35;;;0.80;1.00;;;;;;5095739;28;20175;-69
2021/01/31 04:38:15;;;;;;;11.60;6.60;;;0.70;1.00;;;;;;5095709;28;20217;-69
2021/01/31 04:40:40;;;;;;;9.40;5.70;;;0.70;1.00;;;;;;5095619;28;20183;-69
2021/01/31 04:43:11;;;;;;;12.00;6.93;;;0.60;1.00;;;;;;5095622;28;20401;-68
2021/01/31 04:45:38;;;;;;;13.57;7.57;;;0.60;1.00;;;;;;5095703;28;20183;-68
2021/01/31 04:48:37;;;;;;;10.23;6.30;;;0.60;1.00;;;;;;5095506;28;20168;-69
2021/01/31 04:51:24;;;;;;;7.93;6.55;;;0.80;1.00;;;;;;5095472;28;20207;-68
2021/01/31 04:54:07;;;;;;;8.40;5.80;;;1.10;1.00;;;;;;5095627;28;20262;-69
2021/01/31 04:56:47;;;;;;;7.88;6.18;;;1.00;1.00;;;;;;5095592;28;20461;-68
2021/01/31 04:59:25;;;;;;;10.13;6.70;;;0.70;1.00;;;;;;5095559;28;20159;-69
2021/01/31 05:02:12;;;;;;;11.63;7.07;;;0.80;1.00;;;;;;5095286;28;20239;-69
2021/01/31 05:04:50;;;;;;;9.88;6.05;;;1.00;1.00;;;;;;5080656;28;20261;-69
2021/01/31 05:07:16;;;;;;;14.93;6.70;;;0.70;1.00;;;;;;5095195;28;20332;-67
2021/01/31 05:09:42;;;;;;;8.52;6.30;;;0.80;1.00;;;;;;5095227;28;20199;-68
2021/01/31 05:12:08;;;;;;;11.70;6.77;;;0.90;1.00;;;;;;5094930;28;20290;-69
2021/01/31 05:14:58;;;;;;;12.93;7.80;;;0.70;1.00;;;;;;5095008;28;20861;-68
2021/01/31 05:17:24;;;;;;;8.05;5.93;;;0.60;1.00;;;;;;5094978;28;20555;-69
2021/01/31 05:19:49;;;;;;;10.00;6.27;;;0.70;1.00;;;;;;5094841;28;20188;-69
2021/01/31 05:22:20;;;;;;;10.80;6.60;;;0.40;1.00;;;;;;5094833;28;20168;-68
2021/01/31 05:24:47;;;;;;;10.23;6.78;;;0.30;1.00;;;;;;5094888;28;20520;-69
2021/01/31 05:27:17;;;;;;;11.35;6.68;;;0.30;1.00;;;;;;5094817;28;20167;-69
2021/01/31 05:29:42;;;;;;;10.68;6.50;;;0.50;1.00;;;;;;5094651;28;20191;-68
2021/01/31 05:32:12;;;;;;;13.47;7.00;;;0.50;1.00;;;;;;5094559;28;20202;-69
2021/01/31 05:34:46;;;;;;;11.40;7.13;;;0.40;1.00;;;;;;5095333;28;20218;-68
2021/01/31 05:37:27;;;;;;;9.52;6.28;;;0.30;1.00;;;;;;5094530;28;20539;-68
2021/01/31 05:40:05;;;;;;;8.48;5.32;;;0.50;1.00;;;;;;5094244;28;20199;-68
2021/01/31 05:42:33;;;;;;;8.63;5.95;;;0.40;1.00;;;;;;5094438;28;20648;-68
2021/01/31 05:45:05;;;;;;;10.85;7.18;;;0.20;1.00;;;;;;5094975;28;20181;-68
2021/01/31 05:47:42;;;;;;;9.18;6.20;;;0.30;1.00;;;;;;5094485;28;20513;-68
2021/01/31 05:50:43;;;;;;;9.45;5.82;;;0.20;1.00;;;;;;5094317;28;20700;-67
2021/01/31 05:53:34;;;;;;;7.10;5.60;;;0.30;1.00;;;;;;5093753;28;20209;-68
2021/01/31 05:56:27;;;;;;;9.50;6.15;;;0.10;1.00;;;;;;5094235;28;20219;-68
2021/01/31 05:59:09;;;;;;;11.48;7.45;;;0.00;1.00;;;;;;5094188;28;20194;-69
2021/01/31 06:01:50;;;;;;;9.80;6.85;;;0.10;1.00;;;;;;5094346;28;20236;-69
2021/01/31 06:04:17;;;;;;;9.05;6.05;;;0.00;1.00;;;;;;5094047;28;20203;-69
2021/01/31 06:06:45;;;;;;;11.23;7.25;;;-0.10;1.00;;;;;;5093852;28;20183;-68
2021/01/31 06:09:33;;;;;;;11.63;7.80;;;-0.10;1.00;;;;;;5094222;28;20608;-68
2021/01/31 06:12:20;;;;;;;10.73;6.70;;;0.10;1.00;;;;;;5083250;28;20269;-68
2021/01/31 06:14:49;;;;;;;10.55;6.50;;;0.00;1.00;;;;;;5094060;28;20301;-69
2021/01/31 06:17:27;;;;;;;9.70;6.30;;;0.10;1.00;;;;;;5094072;28;20250;-68
2021/01/31 06:20:03;;;;;;;10.38;6.40;;;0.30;1.00;;;;;;5093823;28;20191;-69
2021/01/31 06:22:44;;;;;;;12.73;6.82;;;0.10;1.00;;;;;;5093713;28;20194;-69
2021/01/31 06:25:15;;;;;;;13.63;7.32;;;0.20;1.00;;;;;;5093926;28;20595;-67
2021/01/31 06:27:42;;;;;;;9.23;6.55;;;0.20;1.00;;;;;;5093878;28;20152;-68
2021/01/31 06:30:20;;;;;;;10.48;7.18;;;0.30;1.00;;;;;;5093492;28;20187;-69
2021/01/31 06:32:49;;;;;;;11.80;7.18;;;0.40;1.00;;;;;;5093667;28;20187;-69
2021/01/31 06:35:17;;;;;;;8.85;6.50;;;0.60;1.00;;;;;;5093477;28;20163;-68
2021/01/31 06:38:01;;;;;;;10.68;7.15;;;0.40;1.00;;;;;;5093748;28;20167;-69
2021/01/31 06:40:57;;;;;;;9.25;5.80;;;0.50;1.00;;;;;;5093416;28;20187;-69
2021/01/31 06:43:38;;;;;;;9.05;5.43;;;0.40;1.00;;;;;;5093421;28;20247;-68
2021/01/31 06:46:39;;;;;;;9.18;6.25;;;0.40;1.00;;;;;;5093654;28;20639;-68
2021/01/31 06:49:09;;;;;;;10.43;6.70;;;0.50;1.00;;;;;;5092933;28;20155;-69
2021/01/31 06:52:04;;;;;;;13.30;7.05;;;0.50;1.00;;;;;;5093223;28;20191;-69
2021/01/31 06:54:51;;;;;;;13.93;8.82;;;0.60;1.00;;;;;;5093258;28;20240;-69
2021/01/31 06:57:38;;;;;;;11.48;6.70;;;0.30;1.00;;;;;;5093231;28;20166;-69
2021/01/31 07:00:06;;;;;;;11.77;7.18;;;0.30;1.00;;;;;;5091936;28;20191;-69
2021/01/31 07:02:53;;;;;;;12.00;6.85;;;0.30;1.00;;;;;;5093117;28;20656;-69
2021/01/31 07:05:35;;;;;;;10.43;7.50;;;0.50;1.00;;;;;;5093125;28;20292;-69
2021/01/31 07:08:31;;;;;;;9.60;6.70;;;0.30;1.00;;;;;;5092997;28;20179;-69
2021/01/31 07:11:28;;;;;;;9.18;6.30;;;0.50;1.00;;;;;;5092903;28;20198;-69
2021/01/31 07:13:58;;;;;;;10.88;6.45;;;0.50;1.00;;;;;;5092085;28;20575;-68
2021/01/31 07:16:29;;;;;;;10.52;6.65;;;0.50;1.00;;;;;;5093156;28;20156;-69
2021/01/31 07:19:11;;;;;;;9.20;5.65;;;0.30;1.00;;;;;;5093174;28;20167;-69
2021/01/31 07:21:45;;;;;;;8.85;6.50;;;0.40;1.00;;;;;;5093450;28;20548;-69
2021/01/31 07:24:20;;;;;;;10.35;7.25;;;0.30;1.00;;;;;;5093507;28;20155;-68
2021/01/31 07:27:18;;;;;;;10.25;7.05;;;0.50;1.00;;;;;;5093032;28;20236;-69
2021/01/31 07:30:13;;;;;;;10.35;6.97;;;0.50;1.00;;;;;;5064917;28;20203;-68
2021/01/31 07:33:13;;;;;;;12.65;6.97;;;0.40;1.00;;;;;;5092767;28;20274;-68
2021/01/31 07:36:03;;;;;;;12.35;7.70;;;0.60;1.00;;;;;;5081756;28;20206;-68
2021/01/31 07:38:53;;;;;;;10.00;7.18;;;0.70;1.00;;;;;;5092687;28;20235;-69
2021/01/31 07:41:18;;;;;;;11.50;7.35;;;0.70;1.00;;;;;;5092559;28;20187;-68
2021/01/31 07:43:47;;;;;;;11.60;8.00;;;0.70;1.00;;;;;;5092623;28;20250;-69
2021/01/31 07:46:17;;;;;;;12.65;7.70;;;0.60;1.00;;;;;;5092838;28;20380;-68
2021/01/31 07:48:50;;;;;;;11.20;6.53;;;0.60;1.00;;;;;;5092658;28;20254;-69
2021/01/31 07:51:40;;;;;;;12.25;7.65;;;0.70;1.00;;;;;;5092396;28;20195;-68
2021/01/31 07:54:21;;;;;;;12.50;7.25;;;0.70;1.00;;;;;;5078101;28;20219;-69
2021/01/31 07:56:48;;;;;;;12.48;6.93;;;0.60;1.00;;;;;;5091229;28;20175;-68
2021/01/31 07:59:13;;;;;;;12.00;6.75;;;0.50;1.00;;;;;;5092434;28;20723;-68
2021/01/31 08:01:39;;;;;;;14.00;7.80;;;0.30;1.00;;;;;;5093444;28;20258;-68
2021/01/31 08:04:17;;;;;;;12.30;7.00;;;0.50;1.00;;;;;;5095070;28;20168;-68
2021/01/31 08:06:59;;;;;;;10.40;7.03;;;0.60;1.00;;;;;;5096300;28;20186;-69
2021/01/31 08:09:27;;;;;;;11.05;6.90;;;0.90;1.00;;;;;;5096697;28;20167;-68
2021/01/31 08:12:00;;;;;;;11.48;7.45;;;0.90;1.00;;;;;;5096442;28;20252;-68
2021/01/31 08:15:07;;;;;;;13.85;7.35;;;1.10;1.00;;;;;;5096042;28;20186;-69
2021/01/31 08:17:56;;;;;;;11.35;6.72;;;1.10;1.00;;;;;;5094789;28;20171;-68
2021/01/31 08:20:28;;;;;;;12.63;7.28;;;1.20;1.00;;;;;;5085149;28;20568;-68
2021/01/31 08:22:59;;;;;;;10.68;7.03;;;1.20;1.00;;;;;;5096304;28;20186;-68
2021/01/31 08:25:27;;;;;;;9.40;6.95;;;1.30;1.00;;;;;;5096416;28;20234;-67
2021/01/31 08:28:02;;;;;;;9.52;6.47;;;1.10;1.00;;;;;;5094825;28;20179;-68
2021/01/31 08:30:33;;;;;;;7.88;5.85;;;1.10;1.00;;;;;;5094369;28;20198;-68
2021/01/31 08:32:59;;;;;;;11.73;6.35;;;1.30;1.00;;;;;;5095449;28;20206;-68
2021/01/31 08:35:36;;;;;;;10.40;6.30;;;1.40;1.00;;;;;;5094408;28;20167;-68
2021/01/31 08:38:34;;;;;;;11.00;7.20;;;1.30;1.00;;;;;;5095684;28;20160;-68
2021/01/31 08:41:00;;;;;;;10.52;6.82;;;1.50;1.00;;;;;;5095751;28;20184;-68
2021/01/31 08:43:48;;;;;;;9.40;6.80;;;1.60;1.00;;;;;;5095715;28;20216;-68
2021/01/31 08:46:34;;;;;;;10.43;6.50;;;1.70;1.00;;;;;;5094522;28;20224;-68
2021/01/31 08:49:11;;;;;;;11.65;7.20;;;1.50;1.00;;;;;;5095932;28;20165;-67
2021/01/31 08:51:39;;;;;;;9.85;6.57;;;1.70;1.00;;;;;;5095537;28;20190;-68
2021/01/31 08:54:08;;;;;;;9.00;6.85;;;2.00;1.00;;;;;;5095390;28;20533;-68
2021/01/31 08:56:40;;;;;;;9.50;6.13;;;1.90;1.00;;;;;;5095515;28;20163;-69
2021/01/31 08:59:10;;;;;;;8.93;6.75;;;2.00;1.00;;;;;;5095658;28;20196;-68
2021/01/31 09:02:09;;;;;;;14.02;7.32;;;2.20;1.00;;;;;;5095201;28;20218;-68
2021/01/31 09:04:37;;;;;;;10.68;6.82;;;2.50;1.00;;;;;;5094195;28;20217;-68
2021/01/31 09:07:03;;;;;;;12.43;7.63;;;2.60;1.00;;;;;;5095077;28;20191;-68
2021/01/31 09:09:35;;;;;;;11.48;7.32;;;2.70;1.00;;;;;;5093868;28;20210;-68
2021/01/31 09:12:07;;;;;;;12.73;7.05;;;2.70;1.00;;;;;;5094694;28;20163;-68
2021/01/31 09:14:35;;;;;;;16.80;7.80;;;2.80;1.00;;;;;;5095088;28;20176;-68
2021/01/31 09:17:20;;;;;;;8.02;5.22;;;2.90;1.00;;;;;;5095049;28;20560;-68
2021/01/31 09:19:46;;;;;;;11.02;7.47;;;2.80;1.00;;;;;;5095109;28;20323;-68
2021/01/31 09:22:22;;;;;;;10.40;6.13;;;3.00;1.00;;;;;;5095305;28;20194;-68
2021/01/31 09:24:57;;;;;;;10.75;6.65;;;2.90;1.00;;;;;;5094829;28;20289;-67
2021/01/31 09:27:25;;;;;;;11.43;6.45;;;2.90;1.00;;;;;;5094835;28;20218;-68
2021/01/31 09:29:58;;;;;;;10.88;6.75;;;3.10;1.00;;;;;;5095120;28;20191;-68
2021/01/31 09:32:26;;;;;;;12.20;7.00;;;3.30;1.00;;;;;;5094890;28;20278;-68
2021/01/31 09:34:54;;;;;;;8.68;6.40;;;3.30;1.00;;;;;;5094606;28;20176;-68
2021/01/31 09:37:28;;;;;;;9.50;6.75;;;3.30;1.00;;;;;;5095208;28;20162;-68
2021/01/31 09:39:56;;;;;;;10.25;7.00;;;3.40;1.00;;;;;;5094678;28;20183;-68
2021/01/31 09:42:27;;;;;;;9.73;6.65;;;3.40;1.00;;;;;;5094851;28;20193;-69
2021/01/31 09:45:05;;;;;;;9.13;6.82;;;3.50;1.00;;;;;;5094683;28;20164;-68
2021/01/31 09:47:31;;;;;;;18.50;7.40;;;3.60;1.00;;;;;;5094833;28;20175;-69
2021/01/31 09:50:02;;;;;;;10.25;6.10;;;3.40;1.00;;;;;;5094519;28;20278;-68
2021/01/31 09:52:28;;;;;;;10.05;7.43;;;3.60;1.00;;;;;;5094274;28;20179;-68
2021/01/31 09:54:53;;;;;;;8.67;6.60;;;3.70;1.00;;;;;;5094411;28;20208;-66
2021/01/31 09:57:23;;;;;;;10.43;6.83;;;3.90;1.00;;;;;;5094266;28;20391;-67
2021/01/31 10:00:10;;;;;;;8.23;7.03;;;3.70;1.00;;;;;;5094162;28;20188;-66
2021/01/31 10:02:36;;;;;;;9.25;6.95;;;4.00;1.00;;;;;;5094177;28;20160;-68
2021/01/31 10:05:05;;;;;;;9.55;6.30;;;4.20;1.00;;;;;;5093980;28;20199;-68
2021/01/31 10:07:36;;;;;;;9.65;5.28;;;3.70;1.00;;;;;;5093853;28;20236;-68
2021/01/31 10:10:31;;;;;;;9.88;6.10;;;3.90;1.00;;;;;;5094190;28;20187;-68
2021/01/31 10:13:21;;;;;;;7.28;4.93;;;4.20;1.00;;;;;;5094286;28;20187;-68
2021/01/31 10:15:53;;;;;;;9.13;5.60;;;4.30;1.00;;;;;;5092703;28;20177;-68
2021/01/31 10:18:35;;;;;;;9.65;6.05;;;4.50;1.00;;;;;;5094408;28;20501;-68
2021/01/31 10:21:24;;;;;;;10.02;6.95;;;4.50;1.00;;;;;;5093960;28;20195;-67
2021/01/31 10:23:58;;;;;;;9.75;6.55;;;4.60;1.00;;;;;;5093538;28;20156;-68
2021/01/31 10:26:24;;;;;;;9.15;5.45;;;4.60;1.00;;;;;;5093789;28;20616;-68
2021/01/31 10:28:56;;;;;;;8.70;6.10;;;4.60;1.00;;;;;;5093550;28;20178;-68
2021/01/31 10:31:24;;;;;;;8.60;5.63;;;4.50;1.00;;;;;;5093636;28;20663;-67
2021/01/31 10:33:51;;;;;;;8.63;5.57;;;4.30;1.00;;;;;;5094568;28;20202;-68
2021/01/31 10:36:33;;;;;;;8.45;5.90;;;4.30;1.00;;;;;;5093438;28;20163;-68
2021/01/31 10:39:13;;;;;;;9.68;6.93;;;4.30;1.00;;;;;;5093716;28;20171;-68
2021/01/31 10:41:44;;;;;;;10.02;6.57;;;4.00;1.00;;;;;;5093382;28;20189;-68
2021/01/31 10:44:13;;;;;;;11.35;6.78;;;4.30;1.00;;;;;;5093484;28;20159;-68
2021/01/31 10:46:40;;;;;;;10.05;6.78;;;4.60;1.00;;;;;;5093053;28;20191;-68
2021/01/31 10:49:06;;;;;;;9.90;6.07;;;4.70;1.00;;;;;;5093586;28;20690;-68
2021/01/31 10:51:34;;;;;;;8.75;5.75;;;5.00;1.00;;;;;;5093241;28;20716;-67
2021/01/31 10:54:01;;;;;;;7.43;5.30;;;5.30;1.00;;;;;;5093183;28;20196;-68
2021/01/31 10:56:27;;;;;;;9.30;6.22;;;5.40;1.00;;;;;;5093175;28;20163;-68
2021/01/31 10:58:53;;;;;;;8.30;6.10;;;5.00;1.00;;;;;;5093476;28;20167;-68
2021/01/31 11:01:20;;;;;;;8.80;6.00;;;5.20;1.00;;;;;;5093157;28;20786;-68
2021/01/31 11:03:47;;;;;;;8.50;5.35;;;5.10;1.00;;;;;;5093466;28;20582;-68
2021/01/31 11:06:12;;;;;;;7.63;5.95;;;5.10;1.00;;;;;;5092961;28;20254;-67
2021/01/31 11:08:38;;;;;;;7.30;5.27;;;5.40;1.00;;;;;;5093411;28;20239;-68
2021/01/31 11:11:04;;;;;;;10.30;6.27;;;5.40;1.00;;;;;;5093098;28;20400;-68
2021/01/31 11:13:31;;;;;;;6.50;5.13;;;5.40;1.00;;;;;;5092962;28;20201;-68
2021/01/31 11:15:57;;;;;;;8.80;5.85;;;5.50;1.00;;;;;;5093186;28;20388;-68
2021/01/31 11:18:23;;;;;;;7.57;4.90;;;5.40;1.00;;;;;;5093055;28;20255;-66
2021/01/31 11:20:49;;;;;;;8.27;5.23;;;5.60;1.00;;;;;;5092915;28;20449;-67
2021/01/31 11:23:14;;;;;;;8.05;5.40;;;6.20;1.00;;;;;;5091639;28;20922;-68
2021/01/31 11:25:40;;;;;;;7.37;5.60;;;6.50;1.00;;;;;;5093154;28;20171;-68
2021/01/31 11:28:06;;;;;;;7.43;5.60;;;6.70;1.00;;;;;;5092984;28;20401;-68
2021/01/31 11:30:32;;;;;;;7.57;4.53;;;6.40;1.00;;;;;;5092920;28;20198;-68
2021/01/31 11:32:58;;;;;;;7.50;4.97;;;6.80;1.00;;;;;;5092793;28;20192;-68
2021/01/31 11:35:25;;;;;;;6.70;4.97;;;7.10;1.00;;;;;;5093543;28;20179;-67
2021/01/31 11:37:51;;;;;;;5.28;4.30;;;7.00;1.00;;;;;;5097299;28;20164;-68
2021/01/31 11:40:17;;;;;;;6.95;4.93;;;6.60;1.00;;;;;;5096881;28;20576;-68
2021/01/31 11:42:43;;;;;;;7.88;5.03;;;7.20;1.00;;;;;;5095283;28;20171;-67
2021/01/31 11:45:10;;;;;;;6.13;4.63;;;7.20;1.00;;;;;;5096762;28;20167;-67
2021/01/31 11:47:37;;;;;;;8.95;4.90;;;6.80;1.00;;;;;;5097172;28;20198;-67
2021/01/31 11:50:05;;;;;;;5.82;4.53;;;6.70;1.00;;;;;;5096742;28;20241;-67
2021/01/31 11:52:30;;;;;;;6.38;4.38;;;6.80;1.00;;;;;;5096320;28;20337;-68
2021/01/31 11:54:56;;;;;;;7.43;4.93;;;6.70;1.00;;;;;;5097431;28;20199;-68
2021/01/31 11:57:21;;;;;;;7.17;4.30;;;7.60;1.00;;;;;;5097542;28;20196;-68
2021/01/31 11:59:47;;;;;;;6.00;4.57;;;7.60;1.00;;;;;;5095148;28;20183;-68
2021/01/31 12:02:12;;;;;;;5.73;4.13;;;7.80;1.00;;;;;;5096784;28;20668;-68
2021/01/31 12:04:38;;;;;;;4.93;4.10;;;8.00;1.00;;;;;;5096433;28;20175;-68
2021/01/31 12:07:05;;;;;;;5.80;4.47;;;8.70;1.00;;;;;;5096179;28;20237;-67
2021/01/31 12:09:31;;;;;;;6.05;4.15;;;8.40;1.00;;;;;;5096397;28;20168;-68
2021/01/31 12:11:56;;;;;;;6.60;4.33;;;7.50;1.00;;;;;;5096158;28;20175;-68
2021/01/31 12:14:22;;;;;;;6.73;4.43;;;7.80;1.00;;;;;;5094865;28;20202;-68
2021/01/31 12:16:47;;;;;;;5.17;4.30;;;8.90;1.00;;;;;;5096188;28;20185;-68
2021/01/31 12:19:13;;;;;;;4.90;4.40;;;8.70;1.00;;;;;;5096044;28;20708;-68
2021/01/31 12:21:38;;;;;;;7.70;3.87;;;9.40;1.00;;;;;;5096061;28;20226;-68
2021/01/31 12:24:04;;;;;;;4.77;4.10;;;9.20;1.00;;;;;;5095904;28;20246;-68
2021/01/31 12:26:30;;;;;;;5.83;4.83;;;8.90;1.00;;;;;;5095721;28;20167;-68
2021/01/31 12:28:55;;;;;;;4.70;3.63;;;9.30;1.00;;;;;;5096571;28;20412;-67
2021/01/31 12:31:21;;;;;;;5.10;4.17;;;8.50;1.00;;;;;;5095851;28;20240;-69
2021/01/31 12:33:47;;;;;;;5.07;4.20;;;8.70;1.00;;;;;;5095980;28;20214;-68
2021/01/31 12:36:12;;;;;;;5.87;4.50;;;8.80;1.00;;;;;;5095703;28;20397;-67
2021/01/31 12:38:38;;;;;;;5.43;4.10;;;8.80;1.00;;;;;;5095618;28;20630;-67
2021/01/31 12:41:03;;;;;;;4.70;3.53;;;8.50;1.00;;;;;;5095681;28;20183;-68
2021/01/31 12:43:29;;;;;;;4.20;3.80;;;8.40;1.00;;;;;;5095852;28;20217;-68
2021/01/31 12:45:54;;;;;;;3.80;3.37;;;9.00;1.00;;;;;;5094316;28;20171;-67
2021/01/31 12:48:20;;;;;;;6.07;3.73;;;9.20;1.00;;;;;;5094797;28;20186;-68
2021/01/31 12:50:45;;;;;;;4.87;3.43;;;9.60;1.00;;;;;;5095137;28;20191;-68
2021/01/31 12:53:11;;;;;;;5.53;3.30;;;9.70;1.00;;;;;;5094961;28;20547;-67
2021/01/31 12:55:40;;;;;;;4.90;3.57;;;10.00;1.00;;;;;;5095215;28;20180;-67
2021/01/31 12:58:06;;;;;;;5.90;3.37;;;10.60;1.00;;;;;;5094035;28;20174;-68
2021/01/31 13:00:31;;;;;;;5.10;3.70;;;10.40;1.00;;;;;;5095129;28;20865;-68
2021/01/31 13:02:57;;;;;;;4.30;3.30;;;10.10;1.00;;;;;;5095393;28;20168;-67
2021/01/31 13:05:30;;;;;;;5.00;3.70;;;10.60;1.00;;;;;;5095399;28;20177;-69
2021/01/31 13:07:59;;;;;;;6.80;3.70;;;10.40;1.00;;;;;;5094649;28;20188;-68
2021/01/31 13:10:26;;;;;;;5.70;3.83;;;10.50;1.00;;;;;;5094924;28;20922;-67
2021/01/31 13:12:51;;;;;;;4.00;3.60;;;11.00;1.00;;;;;;5094727;28;20955;-70
2021/01/31 13:15:17;;;;;;;4.70;3.83;;;10.40;1.00;;;;;;5094865;28;20407;-67
2021/01/31 13:17:43;;;;;;;7.73;3.97;;;9.80;1.00;;;;;;5094992;28;20163;-68
2021/01/31 13:20:09;;;;;;;4.63;4.07;;;10.40;1.00;;;;;;5094340;28;20395;-67
2021/01/31 13:22:35;;;;;;;4.17;3.40;;;11.20;1.00;;;;;;5094668;28;20412;-68
2021/01/31 13:25:01;;;;;;;5.27;4.60;;;11.60;1.00;;;;;;5095131;28;20401;-68
2021/01/31 13:27:26;;;;;;;6.23;4.00;;;11.20;1.00;;;;;;5095135;28;20501;-68
2021/01/31 13:29:52;;;;;;;4.50;3.93;;;11.40;1.00;;;;;;5094673;28;20190;-68